CST,Max TemperatureF,Mean TemperatureF,Min TemperatureF,Max Dew PointF,MeanDew PointF,Min DewpointF,Max Humidity, Mean Humidity, Min Humidity, Max Sea Level PressureIn, Mean Sea Level PressureIn, Min Sea Level PressureIn, Max VisibilityMiles, Mean VisibilityMiles, Min VisibilityMiles, Max Wind SpeedMPH, Mean Wind SpeedMPH, Max Gust SpeedMPH,PrecipitationIn, CloudCover, Events, WindDirDegrees
2012-12-1,60,47,34,52,47,35,100,85,72,30.15,30.04,29.94,10,6,0,26,13,,0.00,4,Fog,187
2012-12-2,62,54,46,57,53,47,100,91,75,30.07,30.00,29.91,10,5,0,22,12,,0.01,6,Fog-Rain,203
2012-12-3,70,62,54,60,57,55,100,82,61,30.02,29.94,29.81,10,5,0,31,17,39,0.03,6,Fog-Rain,202
2012-12-4,59,50,39,57,43,29,100,78,47,30.32,30.09,29.94,10,7,1,15,10,,0.74,4,Rain,323
2012-12-5,41,35,29,32,28,24,92,77,63,30.46,30.36,30.22,10,10,10,15,11,,0.00,0,,83
2012-12-6,46,38,31,40,35,28,89,83,71,30.21,30.07,29.96,10,10,9,14,11,,0.00,1,,176
2012-12-7,45,43,41,45,43,40,100,99,93,29.99,29.92,29.86,7,2,0,13,7,,0.05,7,Fog-Rain,62
2012-12-8,42,38,34,43,38,33,100,97,86,30.08,29.96,29.83,10,4,0,15,9,,0.00,8,Fog-Rain,18
2012-12-9,45,40,34,45,39,32,100,97,83,30.04,29.86,29.76,10,4,0,18,14,21,0.12,8,Fog-Rain,169
2012-12-10,32,28,25,27,23,21,91,84,80,30.06,29.93,29.80,10,10,5,18,15,22,0.00,8,,283
2012-12-11,34,26,17,24,21,16,96,80,62,30.25,30.14,30.06,10,10,10,17,10,,0.00,0,,225
2012-12-12,43,32,20,29,24,17,92,76,46,30.37,30.32,30.25,10,10,10,17,10,,0.00,0,,193
2012-12-13,45,36,27,31,27,23,88,72,50,30.35,30.27,30.18,10,10,10,25,14,29,0.00,0,,196
2012-12-14,47,37,27,37,31,24,89,76,56,30.25,30.17,30.03,10,10,10,16,11,,0.00,0,,184
2012-12-15,50,44,39,49,43,33,100,92,70,30.01,29.74,29.59,10,6,1,26,18,34,0.31,7,Rain,181
2012-12-16,48,42,36,46,39,33,93,87,82,29.80,29.71,29.65,10,8,4,16,11,20,0.00,8,,267
2012-12-17,36,34,32,34,32,30,96,90,86,29.80,29.75,29.66,9,5,2,8,5,,0.07,8,Rain-Snow,344
2012-12-18,45,38,32,39,33,28,93,85,74,29.91,29.76,29.61,10,6,2,29,13,36,0.00,6,,228
2012-12-19,41,36,32,40,34,30,100,92,82,30.09,29.89,29.65,9,4,1,22,12,30,0.32,7,Rain,91
2012-12-20,51,38,25,50,36,21,100,93,79,29.74,29.38,29.09,10,4,0,39,24,52,0.33,8,Fog-Rain-Snow-Thunderstorm,239
2012-12-21,25,20,15,19,14,10,88,80,65,30.31,30.01,29.72,10,8,2,33,25,40,0.00,4,Snow,298
2012-12-22,31,20,10,24,16,7,88,80,69,30.32,30.20,29.98,10,10,7,16,8,,0.00,0,,209
2012-12-23,34,28,22,29,24,19,96,87,79,30.06,30.00,29.96,10,8,4,13,8,,0.00,0,,49
2012-12-24,31,27,23,27,24,20,93,89,84,30.16,29.97,29.87,8,5,2,20,11,,0.00,7,Snow,325
2012-12-25,29,26,23,27,23,18,93,87,80,30.34,30.23,30.12,10,9,4,20,12,,0.00,8,,16
2012-12-26,32,29,25,25,23,21,85,79,69,30.16,30.07,29.99,10,10,10,29,21,38,0.00,8,,7
2012-12-27,29,27,25,23,21,20,84,80,78,30.25,30.20,30.17,10,10,10,12,8,,0.00,8,,18
2012-12-28,31,28,26,30,27,21,100,91,78,30.15,29.98,29.87,10,5,0,14,8,,0.00,8,Fog,112
2012-12-29,30,22,15,29,21,11,100,86,74,30.35,30.07,29.86,10,6,1,23,12,26,0.00,7,Snow,305
2012-12-30,36,25,14,27,20,10,92,80,65,30.43,30.35,30.19,10,8,5,18,10,,0.00,0,,219
2012-12-31,34,27,20,30,26,16,100,84,62,30.19,30.12,30.05,10,5,0,17,13,21,0.02,6,Fog-Snow,263